< < Back
Terminal Aerodrome Forecast


Current Version              Previous Versions:   1  2  3  4  5  6  7  8  9  

Terminal Aerodrome Forecast

315
FTUS42 KMLB 200700 AAA
TAFMCO
TAF AMD
KMCO 200705Z 2007/2106 06008KT P6SM -RA SCT008 OVC060
     FM201400 VRB04KT P6SM VCSH SCT020 BKN040 OVC100
     FM201800 28006KT P6SM VCTS SCT025CB BKN040
      TEMPO 2018/2021 3SM TSRA BKN025CB
     FM210000 26004KT P6SM SCT025 BKN040 BKN080=



Latest METAR

265
SAUS70 KWBC 200800 RRH
MTRMCO
METAR KMCO 200753Z 06007KT 10SM SCT006 OVC090 22/22 A2991 RMK AO2 RAE38
SLP126 SCT V BKN P0003 T02170217


USA.gov is the U.S. government's official web portal to all federal, state and local government web resources and services.